Crystal Coast — WDC9132 — position and weather

sailwx.info

Track history (hours):
 
Tides and Currents Weather Stations Pressure Air Temp Water Temp Dewpoint Dewpoint Depression Visibility Wind Speed Wind Dir Waves Ship Positions

Crystal Coast

Owner: Dann Marine Towing, LC, Chesapeake City, MD. More information available from US FCC via Universal Licensing System and Coast Guard Vessel Documentation Center.

Last reported at 2018-Feb-21 21:00 UTC. Time now 2018-Feb-22 06:47 UTC.
Position N 38°52' W 077°00'.

Length 22 m; draft 2.9 m.

Type: Tug. MMSI: 36797970.

Date/timePositionNaut miles runAvg speedWind from/ knotsBaromVisibWave heightAir tempDewpointWater temp
2018-Feb-21 21:00N 38°52' W 077°00'0 0.0
2018-Feb-21 20:28N 38°52' W 077°00'0 0.0
2018-Feb-21 19:59N 38°52' W 077°00'0 0.0
2018-Feb-21 19:27N 38°52' W 077°00'0 0.0
2018-Feb-21 18:58N 38°52' W 077°00'0 0.0
2018-Feb-21 18:29N 38°52' W 077°00'0 0.0
2018-Feb-21 18:00N 38°52' W 077°00'0 0.0
2018-Feb-21 17:26N 38°52' W 077°00'0 0.0
2018-Feb-21 16:59N 38°52' W 077°00'1 2.8
2018-Feb-21 16:30N 38°51' W 077°01'3 6.8
2018-Feb-21 16:00N 38°48' W 077°02'4 7.1
2018-Feb-21 15:30N 38°44' W 077°02'3 6.5
2018-Feb-21 15:00N 38°42' W 077°05'42 4.0
2018-Feb-21 04:32N 38°08' W 076°33'2 6.7
2018-Feb-21 04:11N 38°06' W 076°31'2 6.7
2018-Feb-21 03:57N 38°05' W 076°29'3 6.7
2018-Feb-21 03:29N 38°03' W 076°26'3 6.9
2018-Feb-21 03:00N 38°02' W 076°22'4 6.2
2018-Feb-21 02:25N 38°02' W 076°18'46 6.5
2018-Feb-20 19:15N 38°47' W 076°27'2 7.2
2018-Feb-20 19:00N 38°49' W 076°26'4 7.1
2018-Feb-20 18:31N 38°53' W 076°26'4 7.1
2018-Feb-20 18:00N 38°56' W 076°25'4 7.2
2018-Feb-20 17:30N 38°60' W 076°23'4 7.0
2018-Feb-20 16:55N 39°04' W 076°23'3 7.0
2018-Feb-20 16:30N 39°07' W 076°24'4 6.7
2018-Feb-20 15:59N 39°10' W 076°25'3 6.7
2018-Feb-20 15:30N 39°12' W 076°29'3 6.6
2018-Feb-20 15:00N 39°14' W 076°32'2 4.1
2018-Feb-20 14:29N 39°15' W 076°34'0 0.0
2018-Feb-20 13:52N 39°15' W 076°34'0 0.0
2018-Feb-20 13:30N 39°15' W 076°34'0 0.0
2018-Feb-20 13:00N 39°15' W 076°34'0 0.0
2018-Feb-20 12:29N 39°15' W 076°34'0 0.0
2018-Feb-20 12:00N 39°15' W 076°34'0 0.0
2018-Feb-20 11:30N 39°15' W 076°34'0 0.0
2018-Feb-20 11:00N 39°15' W 076°34'0 0.1
2018-Feb-20 10:30N 39°15' W 076°34'0 0.0
2018-Feb-20 10:00N 39°15' W 076°34'0 0.0
2018-Feb-20 09:30N 39°15' W 076°34'0 0.0
2018-Feb-20 09:00N 39°15' W 076°34'0 0.0
2018-Feb-20 08:30N 39°15' W 076°34'0 0.0
2018-Feb-20 08:00N 39°15' W 076°34'0 0.0
2018-Feb-20 07:29N 39°15' W 076°34'0 0.0
2018-Feb-20 07:00N 39°15' W 076°34'0 0.0
2018-Feb-20 06:30N 39°15' W 076°34'0 0.0
2018-Feb-20 05:59N 39°15' W 076°34'0 0.0
2018-Feb-20 05:30N 39°15' W 076°34'0 0.0
2018-Feb-20 05:00N 39°15' W 076°34'0 0.0
2018-Feb-20 04:30N 39°15' W 076°34'0 0.0
2018-Feb-20 04:00N 39°15' W 076°34'0 0.6
2018-Feb-20 03:30N 39°15' W 076°34'0 0.1
2018-Feb-19 21:21N 39°15' W 076°34'0 0.1
2018-Feb-19 20:57N 39°15' W 076°34'0 0.0
2018-Feb-19 20:29N 39°15' W 076°34'0 0.0
2018-Feb-19 20:00N 39°15' W 076°34'0 0.0
2018-Feb-19 19:30N 39°15' W 076°34'0 0.0
2018-Feb-19 19:00N 39°15' W 076°34'0 0.0
2018-Feb-19 18:30N 39°15' W 076°34'0 0.0
2018-Feb-19 18:00N 39°15' W 076°34'0 0.0
2018-Feb-19 17:30N 39°15' W 076°34'0 0.0
2018-Feb-19 17:00N 39°15' W 076°34'0 0.0
2018-Feb-19 16:30N 39°15' W 076°34'0 0.0
2018-Feb-19 16:00N 39°15' W 076°34'0 0.0
2018-Feb-19 15:30N 39°15' W 076°34'0 0.0
2018-Feb-19 15:00N 39°15' W 076°34'0 0.0
2018-Feb-19 14:30N 39°15' W 076°34'0 0.0
2018-Feb-19 14:00N 39°15' W 076°34'0 0.0
2018-Feb-19 13:30N 39°15' W 076°34'0 0.0
2018-Feb-19 12:55N 39°15' W 076°34'0 0.0
2018-Feb-19 12:30N 39°15' W 076°34'0 0.0
2018-Feb-19 12:00N 39°15' W 076°34'0 0.0
2018-Feb-19 11:24N 39°15' W 076°34'0 0.0
2018-Feb-19 10:58N 39°15' W 076°34'0 0.0
2018-Feb-19 10:30N 39°15' W 076°34'0 0.0
2018-Feb-19 09:59N 39°15' W 076°34'0 0.8
2018-Feb-19 09:30N 39°15' W 076°34'0 0.1
2018-Feb-19 09:00N 39°15' W 076°34'0 0.0
2018-Feb-19 08:30N 39°15' W 076°34'0 0.0
2018-Feb-19 08:00N 39°15' W 076°34'0 0.0
2018-Feb-19 07:30N 39°15' W 076°34'0 0.0
2018-Feb-19 07:00N 39°15' W 076°34'0 0.0
2018-Feb-19 06:30N 39°15' W 076°34'0 0.0
2018-Feb-19 06:00N 39°15' W 076°34'0 0.0
2018-Feb-19 05:30N 39°15' W 076°34'1 2.3
2018-Feb-19 05:00N 39°15' W 076°33'0 0.0
2018-Feb-19 04:29N 39°15' W 076°33'0 0.0
2018-Feb-19 04:00N 39°15' W 076°33'0 0.0
2018-Feb-19 03:26N 39°15' W 076°33'0 0.0
2018-Feb-19 03:00N 39°15' W 076°33'0 0.0
2018-Feb-19 02:29N 39°15' W 076°33'0 0.0
2018-Feb-19 02:00N 39°15' W 076°33'0 0.0
2018-Feb-19 01:30N 39°15' W 076°33'0 0.0
2018-Feb-19 01:00N 39°15' W 076°33'0 0.0
2018-Feb-19 00:30N 39°15' W 076°33'0 0.0
2018-Feb-19 00:00N 39°15' W 076°33'0 0.0
2018-Feb-18 23:30N 39°15' W 076°33'0 0.0
2018-Feb-18 23:00N 39°15' W 076°33'0 0.0
2018-Feb-18 22:30N 39°15' W 076°33'0 0.0
2018-Feb-18 22:00N 39°15' W 076°33'0 0.0
2018-Feb-18 21:30N 39°15' W 076°33'0 0.0
2018-Feb-18 21:00N 39°15' W 076°33'0 0.0
2018-Feb-18 20:30N 39°15' W 076°33'0 0.0
2018-Feb-18 19:59N 39°15' W 076°33'0 0.0
2018-Feb-18 19:30N 39°15' W 076°33'0 0.0
2018-Feb-18 19:00N 39°15' W 076°33'0 0.0
2018-Feb-18 18:30N 39°15' W 076°33'0 0.0
2018-Feb-18 18:00N 39°15' W 076°33'0 0.0
2018-Feb-18 17:30N 39°15' W 076°33'0 0.0
2018-Feb-18 16:59N 39°15' W 076°33'0 0.0
2018-Feb-18 16:30N 39°15' W 076°33'0 0.0
2018-Feb-18 16:00N 39°15' W 076°33'0 0.0
2018-Feb-18 15:29N 39°15' W 076°33'0 0.0
2018-Feb-18 14:41N 39°15' W 076°33'0 0.0
2018-Feb-18 14:20N 39°15' W 076°33'0 0.0
2018-Feb-18 13:12N 39°15' W 076°33'0 0.0
2018-Feb-18 12:59N 39°15' W 076°33'0 0.0
2018-Feb-18 12:20N 39°15' W 076°33'0 0.0
2018-Feb-18 11:58N 39°15' W 076°33'0 0.0
2018-Feb-18 11:30N 39°15' W 076°33'0 0.0
2018-Feb-18 11:00N 39°15' W 076°33'0 0.0
2018-Feb-18 10:22N 39°15' W 076°33'0 0.0
2018-Feb-18 10:00N 39°15' W 076°33'0 0.0
2018-Feb-18 09:30N 39°15' W 076°33'0 0.0
2018-Feb-18 09:00N 39°15' W 076°33'0 0.0
2018-Feb-18 08:30N 39°16' W 076°33'0 0.0
2018-Feb-18 08:00N 39°15' W 076°33'0 0.0
2018-Feb-18 07:02N 39°15' W 076°33'0 0.0
2018-Feb-18 07:00N 39°15' W 076°33'0 0.0
2018-Feb-18 06:29N 39°15' W 076°33'0 0.0
2018-Feb-18 05:59N 39°16' W 076°33'0 0.0
2018-Feb-18 04:22N 39°15' W 076°33'0 0.0
2018-Feb-18 03:59N 39°15' W 076°33'0 0.0
2018-Feb-18 03:26N 39°15' W 076°33'0 0.0
2018-Feb-18 03:00N 39°15' W 076°33'0 0.0
2018-Feb-18 02:30N 39°15' W 076°33'0 0.0
2018-Feb-18 02:00N 39°15' W 076°33'0 0.0
2018-Feb-18 01:30N 39°15' W 076°33'0 0.0
2018-Feb-18 01:00N 39°15' W 076°33'0 0.0
2018-Feb-18 00:28N 39°15' W 076°33'0 0.0
2018-Feb-18 00:00N 39°15' W 076°33'0 0.0
2018-Feb-17 23:30N 39°15' W 076°33'0 0.0
2018-Feb-17 23:00N 39°15' W 076°33'0 0.0
2018-Feb-17 22:30N 39°15' W 076°33'0 0.0
2018-Feb-17 22:00N 39°15' W 076°33'0 0.0
2018-Feb-17 21:29N 39°15' W 076°33'0 0.0
2018-Feb-17 21:00N 39°15' W 076°33'0 0.0
2018-Feb-17 20:12N 39°15' W 076°33'0 0.0
2018-Feb-17 20:00N 39°15' W 076°33'0 0.0
2018-Feb-17 19:29N 39°15' W 076°33'0 0.0
2018-Feb-17 19:00N 39°15' W 076°33'0 0.0
2018-Feb-17 18:30N 39°15' W 076°33'0 0.0
2018-Feb-17 17:59N 39°15' W 076°33'0 0.0
2018-Feb-17 17:30N 39°15' W 076°33'0 0.0
2018-Feb-17 17:00N 39°15' W 076°33'0 0.0
2018-Feb-17 16:28N 39°15' W 076°33'0 0.0
2018-Feb-17 16:00N 39°15' W 076°33'0 0.0
2018-Feb-17 15:30N 39°15' W 076°33'0 0.0
2018-Feb-17 15:00N 39°15' W 076°33'0 0.0
2018-Feb-17 14:30N 39°15' W 076°33'0 0.0
2018-Feb-17 14:00N 39°15' W 076°33'0 0.0
2018-Feb-17 13:30N 39°15' W 076°33'0 0.0
2018-Feb-17 13:00N 39°15' W 076°33'0 0.0
2018-Feb-17 12:30N 39°15' W 076°33'0 0.0
2018-Feb-17 12:00N 39°15' W 076°33'0 0.0
2018-Feb-17 11:30N 39°15' W 076°33'0 0.0
2018-Feb-17 10:59N 39°15' W 076°33'0 0.0
2018-Feb-17 10:27N 39°15' W 076°33'0 0.0
2018-Feb-17 10:00N 39°15' W 076°33'0 0.0
2018-Feb-17 09:28N 39°15' W 076°33'0 0.0
2018-Feb-17 08:58N 39°15' W 076°33'0 0.0
2018-Feb-17 08:30N 39°15' W 076°33'0 0.0
2018-Feb-17 08:00N 39°15' W 076°33'0 0.0
2018-Feb-17 07:29N 39°15' W 076°33'0 0.0
2018-Feb-17 06:59N 39°15' W 076°33'0 0.0
2018-Feb-17 06:30N 39°15' W 076°33'0 0.0
2018-Feb-17 06:00N 39°15' W 076°33'0 0.0
2018-Feb-17 05:07N 39°15' W 076°33'0 0.0
2018-Feb-17 04:50N 39°15' W 076°33'0 0.0
2018-Feb-17 04:20N 39°15' W 076°33'0 0.0
2018-Feb-17 03:58N 39°15' W 076°33'0 0.0
2018-Feb-17 03:14N 39°15' W 076°33'0 0.0
2018-Feb-17 02:54N 39°15' W 076°33'0 0.0
2018-Feb-17 02:30N 39°15' W 076°33'0 0.0
2018-Feb-17 01:53N 39°15' W 076°33'0 0.0
2018-Feb-17 01:28N 39°15' W 076°33'0 0.0
2018-Feb-17 00:57N 39°15' W 076°33'0 0.0
2018-Feb-17 00:29N 39°15' W 076°33'0 0.0
2018-Feb-17 00:00N 39°15' W 076°33'0 0.0
2018-Feb-16 23:29N 39°15' W 076°33'0 0.0
2018-Feb-16 22:59N 39°15' W 076°33'0 0.0
2018-Feb-16 22:30N 39°15' W 076°33'0 0.0
2018-Feb-16 22:00N 39°15' W 076°33'0 0.0
2018-Feb-16 21:29N 39°15' W 076°33'0 0.0
2018-Feb-16 20:59N 39°15' W 076°33'0 0.0
2018-Feb-16 20:30N 39°15' W 076°33'0 0.0
2018-Feb-16 20:00N 39°15' W 076°33'0 0.0
2018-Feb-16 19:30N 39°15' W 076°33'0 0.0
2018-Feb-16 19:00N 39°16' W 076°33'0 0.0
2018-Feb-16 18:30N 39°15' W 076°33'0 0.0
2018-Feb-16 18:00N 39°15' W 076°33'0 0.0
2018-Feb-16 17:30N 39°15' W 076°33'0 0.0
2018-Feb-16 17:00N 39°15' W 076°33'0 0.0
2018-Feb-16 16:30N 39°15' W 076°33'0 0.0
2018-Feb-16 16:00N 39°15' W 076°33'0 0.0
2018-Feb-16 15:30N 39°15' W 076°33'0 0.0
2018-Feb-16 15:00N 39°15' W 076°33'0 0.0
2018-Feb-16 14:30N 39°15' W 076°33'0 0.0
2018-Feb-16 14:00N 39°16' W 076°33'0 0.0
2018-Feb-16 13:30N 39°15' W 076°33'0 0.0
2018-Feb-16 12:59N 39°15' W 076°33'0 0.0
2018-Feb-16 10:54N 39°15' W 076°33'0 0.0
2018-Feb-16 10:24N 39°15' W 076°33'0 0.0
2018-Feb-16 10:00N 39°15' W 076°33'0 0.0
2018-Feb-16 09:29N 39°15' W 076°33'0 0.0
2018-Feb-16 08:03N 39°15' W 076°33'0 0.0
2018-Feb-16 07:48N 39°15' W 076°33'0 0.0
2018-Feb-16 07:30N 39°15' W 076°33'0 0.0
2018-Feb-16 05:35N 39°15' W 076°33'0 0.1
2018-Feb-16 05:30N 39°16' W 076°33'0 0.0
2018-Feb-16 05:00N 39°16' W 076°33'0 0.0
2018-Feb-16 04:30N 39°15' W 076°33'0 0.0
2018-Feb-16 04:00N 39°16' W 076°33'0 0.0
2018-Feb-16 03:30N 39°15' W 076°33'0 0.0
2018-Feb-16 02:59N 39°15' W 076°33'0 0.0
2018-Feb-16 02:30N 39°15' W 076°33'0 0.0
2018-Feb-16 02:00N 39°15' W 076°33'0 0.0
2018-Feb-16 01:30N 39°15' W 076°33'0 0.0
2018-Feb-16 01:00N 39°15' W 076°33'0 0.0
2018-Feb-16 00:30N 39°15' W 076°33'0 0.0
2018-Feb-15 23:59N 39°15' W 076°33'0 0.0
2018-Feb-15 23:29N 39°15' W 076°33'1 1.1
2018-Feb-15 23:00N 39°15' W 076°34'1 1.3
2018-Feb-15 22:30N 39°15' W 076°34'0 0.0
2018-Feb-15 22:00N 39°15' W 076°34'0 0.0
2018-Feb-15 21:30N 39°15' W 076°34'0 0.0
2018-Feb-15 21:00N 39°15' W 076°34'0 0.0
2018-Feb-15 20:30N 39°15' W 076°34'0 0.0
2018-Feb-15 20:00N 39°15' W 076°34'0 0.0
2018-Feb-15 19:30N 39°15' W 076°34'0 0.0
2018-Feb-15 19:00N 39°15' W 076°34'0 0.0
2018-Feb-15 18:30N 39°15' W 076°34'0 0.0
2018-Feb-15 18:00N 39°15' W 076°34'0 0.0
2018-Feb-15 17:30N 39°15' W 076°34'0 0.0
2018-Feb-15 17:00N 39°15' W 076°34'0 0.0
2018-Feb-15 16:30N 39°15' W 076°34'0 0.0
2018-Feb-15 16:00N 39°15' W 076°34'0 0.0
2018-Feb-15 15:30N 39°15' W 076°34'0 0.0
2018-Feb-15 15:00N 39°15' W 076°34'0 0.0
2018-Feb-15 14:30N 39°15' W 076°34'0 0.0
2018-Feb-15 14:00N 39°15' W 076°34'0 0.0
2018-Feb-15 13:30N 39°15' W 076°34'0 0.6
2018-Feb-15 13:00N 39°15' W 076°34'3 6.5
2018-Feb-15 12:30N 39°12' W 076°31'4 7.9
2018-Feb-15 12:00N 39°11' W 076°26'9 7.2
2018-Feb-15 10:48N 39°15' W 076°17'3 6.5
2018-Feb-15 10:24N 39°17' W 076°14'3 7.5
2018-Feb-15 10:00N 39°20' W 076°12'4 7.8
2018-Feb-15 09:30N 39°22' W 076°08'4 7.9
2018-Feb-15 09:00N 39°24' W 076°04'4 8.0
2018-Feb-15 08:30N 39°27' W 075°60'4 8.1
2018-Feb-15 08:00N 39°29' W 075°56'4 8.0
2018-Feb-15 07:30N 39°32' W 075°52'4 8.0
2018-Feb-15 07:00N 39°32' W 075°47'4 8.3
2018-Feb-15 06:30N 39°33' W 075°41'4 8.0
2018-Feb-15 06:00N 39°33' W 075°36'3 5.7
2018-Feb-15 05:30N 39°32' W 075°33'4 7.5
2018-Feb-15 05:00N 39°29' W 075°34'4 7.5
2018-Feb-15 04:30N 39°25' W 075°32'4 8.1
2018-Feb-15 04:00N 39°22' W 075°28'4 8.6
2018-Feb-15 03:30N 39°19' W 075°25'4 8.3
2018-Feb-15 03:00N 39°16' W 075°21'4 7.1
2018-Feb-15 02:30N 39°12' W 075°21'2 4.9
2018-Feb-15 02:00N 39°11' W 075°24'0 0.0
2018-Feb-15 01:30N 39°11' W 075°24'0 0.0
2018-Feb-15 01:00N 39°11' W 075°24'0 0.0
2018-Feb-15 00:29N 39°11' W 075°24'0 0.0
2018-Feb-15 00:00N 39°11' W 075°24'0 0.0
2018-Feb-14 23:30N 39°11' W 075°24'0 0.0
2018-Feb-14 23:00N 39°11' W 075°24'0 0.0
2018-Feb-14 13:56N 39°11' W 075°24'0 0.0
2018-Feb-14 13:30N 39°11' W 075°24'0 0.2
2018-Feb-14 13:00N 39°11' W 075°24'2 3.3
2018-Feb-14 12:30N 39°12' W 075°22'2 3.4
2018-Feb-14 12:00N 39°13' W 075°20'1 1.8
2018-Feb-14 11:30N 39°14' W 075°20'1 1.7
2018-Feb-14 11:00N 39°15' W 075°21'1 2.9
2018-Feb-14 10:30N 39°16' W 075°21'1 2.4
2018-Feb-14 10:00N 39°17' W 075°22'2 3.2
2018-Feb-14 09:30N 39°18' W 075°23'2 3.8
2018-Feb-14 09:00N 39°20' W 075°25'2 4.9
2018-Feb-14 08:30N 39°21' W 075°27'3 5.9
2018-Feb-14 08:01N 39°24' W 075°30'5 9.0
2018-Feb-14 07:30N 39°27' W 075°34'4 8.9
2018-Feb-14 07:00N 39°32' W 075°33'2 4.9
2018-Feb-14 06:30N 39°33' W 075°35'3 6.2
2018-Feb-14 06:00N 39°33' W 075°39'3 5.7
2018-Feb-14 05:31N 39°33' W 075°43'3 5.6
2018-Feb-14 05:00N 39°32' W 075°46'3 5.4
2018-Feb-14 04:30N 39°32' W 075°50'3 5.5
2018-Feb-14 04:00N 39°31' W 075°53'3 6.1
2018-Feb-14 03:30N 39°29' W 075°57'3 6.6
2018-Feb-14 03:00N 39°27' W 075°60'3 6.6
2018-Feb-14 02:30N 39°25' W 076°03'3 6.7
2018-Feb-14 02:00N 39°23' W 076°06'4 7.0
2018-Feb-14 01:30N 39°21' W 076°10'5 7.0
2018-Feb-14 00:45N 39°17' W 076°14'5 6.9
2018-Feb-14 00:03N 39°14' W 076°19'1 7.2
2018-Feb-13 23:56N 39°14' W 076°20'3 7.1
2018-Feb-13 23:29N 39°12' W 076°24'3 6.2
2018-Feb-13 22:58N 39°11' W 076°28'3 6.5
2018-Feb-13 22:30N 39°13' W 076°31'3 6.5
2018-Feb-13 22:00N 39°15' W 076°34'0 0.2
2018-Feb-13 21:30N 39°15' W 076°34'0 0.0
2018-Feb-13 15:19N 39°15' W 076°34'0 0.0
2018-Feb-13 15:00N 39°15' W 076°34'0 0.0
2018-Feb-13 14:30N 39°15' W 076°34'0 0.0
2018-Feb-13 14:00N 39°15' W 076°34'0 0.0
2018-Feb-13 13:30N 39°15' W 076°34'0 0.0
2018-Feb-13 13:00N 39°15' W 076°34'0 0.0
2018-Feb-13 12:30N 39°15' W 076°34'0 0.0
2018-Feb-13 12:00N 39°15' W 076°34'0 0.0
2018-Feb-13 11:30N 39°15' W 076°34'0 0.0
2018-Feb-13 11:00N 39°15' W 076°34'0 0.0
2018-Feb-13 10:30N 39°15' W 076°34'0 0.0
2018-Feb-13 10:00N 39°15' W 076°34'0 0.0
2018-Feb-13 09:30N 39°15' W 076°34'0 0.0
2018-Feb-13 09:00N 39°15' W 076°34'0 0.0
2018-Feb-13 08:30N 39°15' W 076°34'0 0.0
2018-Feb-13 08:00N 39°15' W 076°34'0 0.0
2018-Feb-13 07:30N 39°15' W 076°34'0 0.0
2018-Feb-13 07:00N 39°15' W 076°34'0 0.0
2018-Feb-13 06:30N 39°15' W 076°34'0 0.0
2018-Feb-13 05:59N 39°15' W 076°34'0 0.0
2018-Feb-13 05:30N 39°15' W 076°34'0 0.0
2018-Feb-13 05:00N 39°15' W 076°34'0 0.0
2018-Feb-13 04:30N 39°15' W 076°34'0 0.0
2018-Feb-13 03:59N 39°15' W 076°34'0 0.0
2018-Feb-13 03:30N 39°15' W 076°34'0 0.0
2018-Feb-13 03:00N 39°15' W 076°34'0 0.0
2018-Feb-13 02:30N 39°15' W 076°34'0 0.0
2018-Feb-13 02:00N 39°15' W 076°34'0 0.0
2018-Feb-13 01:30N 39°15' W 076°34'0 0.0
2018-Feb-13 01:00N 39°15' W 076°34'0 0.0
2018-Feb-13 00:30N 39°15' W 076°34'0 0.0
2018-Feb-13 00:00N 39°15' W 076°34'0 0.0
2018-Feb-12 23:30N 39°15' W 076°34'0 0.0
2018-Feb-12 23:00N 39°15' W 076°34'0 0.0
2018-Feb-12 22:30N 39°15' W 076°34'0 0.0
2018-Feb-12 22:00N 39°15' W 076°34'0 0.0
2018-Feb-12 21:30N 39°15' W 076°34'0 0.0
2018-Feb-12 21:00N 39°15' W 076°34'0 0.0
2018-Feb-12 20:28N 39°15' W 076°34'0 0.0
2018-Feb-12 19:59N 39°15' W 076°34'0 0.0
2018-Feb-12 19:30N 39°15' W 076°34'0 0.0
2018-Feb-12 18:58N 39°15' W 076°34'0 0.0
2018-Feb-12 18:30N 39°15' W 076°34'0 0.0
2018-Feb-12 18:00N 39°15' W 076°34'0 0.0
2018-Feb-12 17:30N 39°15' W 076°34'0 0.0
2018-Feb-12 17:00N 39°15' W 076°34'0 0.0
2018-Feb-12 16:30N 39°15' W 076°34'0 0.0
2018-Feb-12 16:00N 39°15' W 076°34'0 0.0
2018-Feb-12 15:30N 39°15' W 076°34'0 0.0
2018-Feb-12 15:00N 39°15' W 076°34'0 0.0
2018-Feb-12 14:28N 39°15' W 076°34'0 0.0
2018-Feb-12 13:58N 39°15' W 076°34'0 0.1
2018-Feb-12 13:30N 39°15' W 076°34'0 0.8
2018-Feb-12 13:00N 39°15' W 076°34'1 1.1
2018-Feb-12 12:30N 39°15' W 076°33'0 0.0
2018-Feb-12 12:00N 39°15' W 076°33'0 0.0
2018-Feb-12 11:30N 39°15' W 076°33'0 0.0
2018-Feb-12 11:00N 39°15' W 076°33'0 0.0
2018-Feb-12 10:30N 39°15' W 076°33'0 0.0
2018-Feb-12 10:00N 39°15' W 076°33'0 0.0
2018-Feb-12 09:30N 39°15' W 076°33'0 0.0
2018-Feb-12 09:00N 39°15' W 076°33'0 0.0
2018-Feb-12 08:30N 39°15' W 076°33'0 0.0
2018-Feb-12 08:00N 39°15' W 076°33'0 0.0
2018-Feb-12 07:30N 39°15' W 076°33'0 0.0
2018-Feb-12 07:00N 39°15' W 076°33'1 1.8
2018-Feb-12 06:25N 39°15' W 076°34'0 0.0
2018-Feb-12 05:59N 39°15' W 076°34'0 0.0
2018-Feb-12 05:28N 39°15' W 076°34'1 2.4
2018-Feb-12 05:00N 39°15' W 076°33'0 0.0
2018-Feb-12 04:29N 39°15' W 076°33'0 0.0
2018-Feb-12 04:00N 39°15' W 076°33'0 0.0
2018-Feb-12 03:30N 39°15' W 076°33'0 0.0
2018-Feb-12 03:00N 39°15' W 076°33'0 0.0
2018-Feb-12 02:30N 39°15' W 076°33'0 0.0
2018-Feb-12 01:57N 39°15' W 076°33'0 0.0
2018-Feb-12 01:26N 39°15' W 076°33'0 0.0
2018-Feb-12 01:00N 39°15' W 076°33'0 0.0
2018-Feb-12 00:06N 39°15' W 076°33'0 0.0
2018-Feb-12 00:00N 39°15' W 076°33'0 0.0
2018-Feb-11 23:30N 39°15' W 076°33'0 0.0
2018-Feb-11 23:00N 39°15' W 076°33'0 0.0
2018-Feb-11 22:29N 39°16' W 076°33'0 0.0
2018-Feb-11 22:00N 39°15' W 076°33'0 0.0
2018-Feb-11 21:30N 39°15' W 076°33'  
Track history (hours):
 
Tides and Currents Weather Stations Pressure Air Temp Water Temp Dewpoint Dewpoint Depression Visibility Wind Speed Wind Dir Waves Ship Positions

Crystal Coast

Owner: Dann Marine Towing, LC, Chesapeake City, MD. More information available from US FCC via Universal Licensing System and Coast Guard Vessel Documentation Center.

Last reported at 2018-Feb-21 21:00 UTC. Time now 2018-Feb-22 06:47 UTC.
Position N 38°52' W 077°00'.

Length 22 m; draft 2.9 m.

Type: Tug. MMSI: 36797970.

Date/timePositionNaut miles runAvg speedWind from/ knotsBaromVisibWave heightAir tempDewpointWater temp
2018-Feb-21 21:00N 38°52' W 077°00'0 0.0
2018-Feb-21 20:28N 38°52' W 077°00'0 0.0
2018-Feb-21 19:59N 38°52' W 077°00'0 0.0
2018-Feb-21 19:27N 38°52' W 077°00'0 0.0
2018-Feb-21 18:58N 38°52' W 077°00'0 0.0
2018-Feb-21 18:29N 38°52' W 077°00'0 0.0
2018-Feb-21 18:00N 38°52' W 077°00'0 0.0
2018-Feb-21 17:26N 38°52' W 077°00'0 0.0
2018-Feb-21 16:59N 38°52' W 077°00'1 2.8
2018-Feb-21 16:30N 38°51' W 077°01'3 6.8
2018-Feb-21 16:00N 38°48' W 077°02'4 7.1
2018-Feb-21 15:30N 38°44' W 077°02'3 6.5
2018-Feb-21 15:00N 38°42' W 077°05'42 4.0
2018-Feb-21 04:32N 38°08' W 076°33'2 6.7
2018-Feb-21 04:11N 38°06' W 076°31'2 6.7
2018-Feb-21 03:57N 38°05' W 076°29'3 6.7
2018-Feb-21 03:29N 38°03' W 076°26'3 6.9
2018-Feb-21 03:00N 38°02' W 076°22'4 6.2
2018-Feb-21 02:25N 38°02' W 076°18'46 6.5
2018-Feb-20 19:15N 38°47' W 076°27'2 7.2
2018-Feb-20 19:00N 38°49' W 076°26'4 7.1
2018-Feb-20 18:31N 38°53' W 076°26'4 7.1
2018-Feb-20 18:00N 38°56' W 076°25'4 7.2
2018-Feb-20 17:30N 38°60' W 076°23'4 7.0
2018-Feb-20 16:55N 39°04' W 076°23'3 7.0
2018-Feb-20 16:30N 39°07' W 076°24'4 6.7
2018-Feb-20 15:59N 39°10' W 076°25'3 6.7
2018-Feb-20 15:30N 39°12' W 076°29'3 6.6
2018-Feb-20 15:00N 39°14' W 076°32'2 4.1
2018-Feb-20 14:29N 39°15' W 076°34'0 0.0
2018-Feb-20 13:52N 39°15' W 076°34'0 0.0
2018-Feb-20 13:30N 39°15' W 076°34'0 0.0
2018-Feb-20 13:00N 39°15' W 076°34'0 0.0
2018-Feb-20 12:29N 39°15' W 076°34'0 0.0
2018-Feb-20 12:00N 39°15' W 076°34'0 0.0
2018-Feb-20 11:30N 39°15' W 076°34'0 0.0
2018-Feb-20 11:00N 39°15' W 076°34'0 0.1
2018-Feb-20 10:30N 39°15' W 076°34'0 0.0
2018-Feb-20 10:00N 39°15' W 076°34'0 0.0
2018-Feb-20 09:30N 39°15' W 076°34'0 0.0
2018-Feb-20 09:00N 39°15' W 076°34'0 0.0
2018-Feb-20 08:30N 39°15' W 076°34'0 0.0
2018-Feb-20 08:00N 39°15' W 076°34'0 0.0
2018-Feb-20 07:29N 39°15' W 076°34'0 0.0
2018-Feb-20 07:00N 39°15' W 076°34'0 0.0
2018-Feb-20 06:30N 39°15' W 076°34'0 0.0
2018-Feb-20 05:59N 39°15' W 076°34'0 0.0
2018-Feb-20 05:30N 39°15' W 076°34'0 0.0
2018-Feb-20 05:00N 39°15' W 076°34'0 0.0
2018-Feb-20 04:30N 39°15' W 076°34'0 0.0
2018-Feb-20 04:00N 39°15' W 076°34'0 0.6
2018-Feb-20 03:30N 39°15' W 076°34'0 0.1
2018-Feb-19 21:21N 39°15' W 076°34'0 0.1
2018-Feb-19 20:57N 39°15' W 076°34'0 0.0
2018-Feb-19 20:29N 39°15' W 076°34'0 0.0
2018-Feb-19 20:00N 39°15' W 076°34'0 0.0
2018-Feb-19 19:30N 39°15' W 076°34'0 0.0
2018-Feb-19 19:00N 39°15' W 076°34'0 0.0
2018-Feb-19 18:30N 39°15' W 076°34'0 0.0
2018-Feb-19 18:00N 39°15' W 076°34'0 0.0
2018-Feb-19 17:30N 39°15' W 076°34'0 0.0
2018-Feb-19 17:00N 39°15' W 076°34'0 0.0
2018-Feb-19 16:30N 39°15' W 076°34'0 0.0
2018-Feb-19 16:00N 39°15' W 076°34'0 0.0
2018-Feb-19 15:30N 39°15' W 076°34'0 0.0
2018-Feb-19 15:00N 39°15' W 076°34'0 0.0
2018-Feb-19 14:30N 39°15' W 076°34'0 0.0
2018-Feb-19 14:00N 39°15' W 076°34'0 0.0
2018-Feb-19 13:30N 39°15' W 076°34'0 0.0
2018-Feb-19 12:55N 39°15' W 076°34'0 0.0
2018-Feb-19 12:30N 39°15' W 076°34'0 0.0
2018-Feb-19 12:00N 39°15' W 076°34'0 0.0
2018-Feb-19 11:24N 39°15' W 076°34'0 0.0
2018-Feb-19 10:58N 39°15' W 076°34'0 0.0
2018-Feb-19 10:30N 39°15' W 076°34'0 0.0
2018-Feb-19 09:59N 39°15' W 076°34'0 0.8
2018-Feb-19 09:30N 39°15' W 076°34'0 0.1
2018-Feb-19 09:00N 39°15' W 076°34'0 0.0
2018-Feb-19 08:30N 39°15' W 076°34'0 0.0
2018-Feb-19 08:00N 39°15' W 076°34'0 0.0
2018-Feb-19 07:30N 39°15' W 076°34'0 0.0
2018-Feb-19 07:00N 39°15' W 076°34'0 0.0
2018-Feb-19 06:30N 39°15' W 076°34'0 0.0
2018-Feb-19 06:00N 39°15' W 076°34'0 0.0
2018-Feb-19 05:30N 39°15' W 076°34'1 2.3
2018-Feb-19 05:00N 39°15' W 076°33'0 0.0
2018-Feb-19 04:29N 39°15' W 076°33'0 0.0
2018-Feb-19 04:00N 39°15' W 076°33'0 0.0
2018-Feb-19 03:26N 39°15' W 076°33'0 0.0
2018-Feb-19 03:00N 39°15' W 076°33'0 0.0
2018-Feb-19 02:29N 39°15' W 076°33'0 0.0
2018-Feb-19 02:00N 39°15' W 076°33'0 0.0
2018-Feb-19 01:30N 39°15' W 076°33'0 0.0
2018-Feb-19 01:00N 39°15' W 076°33'0 0.0
2018-Feb-19 00:30N 39°15' W 076°33'0 0.0
2018-Feb-19 00:00N 39°15' W 076°33'0 0.0
2018-Feb-18 23:30N 39°15' W 076°33'0 0.0
2018-Feb-18 23:00N 39°15' W 076°33'0 0.0
2018-Feb-18 22:30N 39°15' W 076°33'0 0.0
2018-Feb-18 22:00N 39°15' W 076°33'0 0.0
2018-Feb-18 21:30N 39°15' W 076°33'0 0.0
2018-Feb-18 21:00N 39°15' W 076°33'0 0.0
2018-Feb-18 20:30N 39°15' W 076°33'0 0.0
2018-Feb-18 19:59N 39°15' W 076°33'0 0.0
2018-Feb-18 19:30N 39°15' W 076°33'0 0.0
2018-Feb-18 19:00N 39°15' W 076°33'0 0.0
2018-Feb-18 18:30N 39°15' W 076°33'0 0.0
2018-Feb-18 18:00N 39°15' W 076°33'0 0.0
2018-Feb-18 17:30N 39°15' W 076°33'0 0.0
2018-Feb-18 16:59N 39°15' W 076°33'0 0.0
2018-Feb-18 16:30N 39°15' W 076°33'0 0.0
2018-Feb-18 16:00N 39°15' W 076°33'0 0.0
2018-Feb-18 15:29N 39°15' W 076°33'0 0.0
2018-Feb-18 14:41N 39°15' W 076°33'0 0.0
2018-Feb-18 14:20N 39°15' W 076°33'0 0.0
2018-Feb-18 13:12N 39°15' W 076°33'0 0.0
2018-Feb-18 12:59N 39°15' W 076°33'0 0.0
2018-Feb-18 12:20N 39°15' W 076°33'0 0.0
2018-Feb-18 11:58N 39°15' W 076°33'0 0.0
2018-Feb-18 11:30N 39°15' W 076°33'0 0.0
2018-Feb-18 11:00N 39°15' W 076°33'0 0.0
2018-Feb-18 10:22N 39°15' W 076°33'0 0.0
2018-Feb-18 10:00N 39°15' W 076°33'0 0.0
2018-Feb-18 09:30N 39°15' W 076°33'0 0.0
2018-Feb-18 09:00N 39°15' W 076°33'0 0.0
2018-Feb-18 08:30N 39°16' W 076°33'0 0.0
2018-Feb-18 08:00N 39°15' W 076°33'0 0.0
2018-Feb-18 07:02N 39°15' W 076°33'0 0.0
2018-Feb-18 07:00N 39°15' W 076°33'0 0.0
2018-Feb-18 06:29N 39°15' W 076°33'0 0.0
2018-Feb-18 05:59N 39°16' W 076°33'0 0.0
2018-Feb-18 04:22N 39°15' W 076°33'0 0.0
2018-Feb-18 03:59N 39°15' W 076°33'0 0.0
2018-Feb-18 03:26N 39°15' W 076°33'0 0.0
2018-Feb-18 03:00N 39°15' W 076°33'0 0.0
2018-Feb-18 02:30N 39°15' W 076°33'0 0.0
2018-Feb-18 02:00N 39°15' W 076°33'0 0.0
2018-Feb-18 01:30N 39°15' W 076°33'0 0.0
2018-Feb-18 01:00N 39°15' W 076°33'0 0.0
2018-Feb-18 00:28N 39°15' W 076°33'0 0.0
2018-Feb-18 00:00N 39°15' W 076°33'0 0.0
2018-Feb-17 23:30N 39°15' W 076°33'0 0.0
2018-Feb-17 23:00N 39°15' W 076°33'0 0.0
2018-Feb-17 22:30N 39°15' W 076°33'0 0.0
2018-Feb-17 22:00N 39°15' W 076°33'0 0.0
2018-Feb-17 21:29N 39°15' W 076°33'0 0.0
2018-Feb-17 21:00N 39°15' W 076°33'0 0.0
2018-Feb-17 20:12N 39°15' W 076°33'0 0.0
2018-Feb-17 20:00N 39°15' W 076°33'0 0.0
2018-Feb-17 19:29N 39°15' W 076°33'0 0.0
2018-Feb-17 19:00N 39°15' W 076°33'0 0.0
2018-Feb-17 18:30N 39°15' W 076°33'0 0.0
2018-Feb-17 17:59N 39°15' W 076°33'0 0.0
2018-Feb-17 17:30N 39°15' W 076°33'0 0.0
2018-Feb-17 17:00N 39°15' W 076°33'0 0.0
2018-Feb-17 16:28N 39°15' W 076°33'0 0.0
2018-Feb-17 16:00N 39°15' W 076°33'0 0.0
2018-Feb-17 15:30N 39°15' W 076°33'0 0.0
2018-Feb-17 15:00N 39°15' W 076°33'0 0.0
2018-Feb-17 14:30N 39°15' W 076°33'0 0.0
2018-Feb-17 14:00N 39°15' W 076°33'0 0.0
2018-Feb-17 13:30N 39°15' W 076°33'0 0.0
2018-Feb-17 13:00N 39°15' W 076°33'0 0.0
2018-Feb-17 12:30N 39°15' W 076°33'0 0.0
2018-Feb-17 12:00N 39°15' W 076°33'0 0.0
2018-Feb-17 11:30N 39°15' W 076°33'0 0.0
2018-Feb-17 10:59N 39°15' W 076°33'0 0.0
2018-Feb-17 10:27N 39°15' W 076°33'0 0.0
2018-Feb-17 10:00N 39°15' W 076°33'0 0.0
2018-Feb-17 09:28N 39°15' W 076°33'0 0.0
2018-Feb-17 08:58N 39°15' W 076°33'0 0.0
2018-Feb-17 08:30N 39°15' W 076°33'0 0.0
2018-Feb-17 08:00N 39°15' W 076°33'0 0.0
2018-Feb-17 07:29N 39°15' W 076°33'0 0.0
2018-Feb-17 06:59N 39°15' W 076°33'0 0.0
2018-Feb-17 06:30N 39°15' W 076°33'0 0.0
2018-Feb-17 06:00N 39°15' W 076°33'0 0.0
2018-Feb-17 05:07N 39°15' W 076°33'0 0.0
2018-Feb-17 04:50N 39°15' W 076°33'0 0.0
2018-Feb-17 04:20N 39°15' W 076°33'0 0.0
2018-Feb-17 03:58N 39°15' W 076°33'0 0.0
2018-Feb-17 03:14N 39°15' W 076°33'0 0.0
2018-Feb-17 02:54N 39°15' W 076°33'0 0.0
2018-Feb-17 02:30N 39°15' W 076°33'0 0.0
2018-Feb-17 01:53N 39°15' W 076°33'0 0.0
2018-Feb-17 01:28N 39°15' W 076°33'0 0.0
2018-Feb-17 00:57N 39°15' W 076°33'0 0.0
2018-Feb-17 00:29N 39°15' W 076°33'0 0.0
2018-Feb-17 00:00N 39°15' W 076°33'0 0.0
2018-Feb-16 23:29N 39°15' W 076°33'0 0.0
2018-Feb-16 22:59N 39°15' W 076°33'0 0.0
2018-Feb-16 22:30N 39°15' W 076°33'0 0.0
2018-Feb-16 22:00N 39°15' W 076°33'0 0.0
2018-Feb-16 21:29N 39°15' W 076°33'0 0.0
2018-Feb-16 20:59N 39°15' W 076°33'0 0.0
2018-Feb-16 20:30N 39°15' W 076°33'0 0.0
2018-Feb-16 20:00N 39°15' W 076°33'0 0.0
2018-Feb-16 19:30N 39°15' W 076°33'0 0.0
2018-Feb-16 19:00N 39°16' W 076°33'0 0.0
2018-Feb-16 18:30N 39°15' W 076°33'0 0.0
2018-Feb-16 18:00N 39°15' W 076°33'0 0.0
2018-Feb-16 17:30N 39°15' W 076°33'0 0.0
2018-Feb-16 17:00N 39°15' W 076°33'0 0.0
2018-Feb-16 16:30N 39°15' W 076°33'0 0.0
2018-Feb-16 16:00N 39°15' W 076°33'0 0.0
2018-Feb-16 15:30N 39°15' W 076°33'0 0.0
2018-Feb-16 15:00N 39°15' W 076°33'0 0.0
2018-Feb-16 14:30N 39°15' W 076°33'0 0.0
2018-Feb-16 14:00N 39°16' W 076°33'0 0.0
2018-Feb-16 13:30N 39°15' W 076°33'0 0.0
2018-Feb-16 12:59N 39°15' W 076°33'0 0.0
2018-Feb-16 10:54N 39°15' W 076°33'0 0.0
2018-Feb-16 10:24N 39°15' W 076°33'0 0.0
2018-Feb-16 10:00N 39°15' W 076°33'0 0.0
2018-Feb-16 09:29N 39°15' W 076°33'0 0.0
2018-Feb-16 08:03N 39°15' W 076°33'0 0.0
2018-Feb-16 07:48N 39°15' W 076°33'0 0.0
2018-Feb-16 07:30N 39°15' W 076°33'0 0.0
2018-Feb-16 05:35N 39°15' W 076°33'0 0.1
2018-Feb-16 05:30N 39°16' W 076°33'0 0.0
2018-Feb-16 05:00N 39°16' W 076°33'0 0.0
2018-Feb-16 04:30N 39°15' W 076°33'0 0.0
2018-Feb-16 04:00N 39°16' W 076°33'0 0.0
2018-Feb-16 03:30N 39°15' W 076°33'0 0.0
2018-Feb-16 02:59N 39°15' W 076°33'0 0.0
2018-Feb-16 02:30N 39°15' W 076°33'0 0.0
2018-Feb-16 02:00N 39°15' W 076°33'0 0.0
2018-Feb-16 01:30N 39°15' W 076°33'0 0.0
2018-Feb-16 01:00N 39°15' W 076°33'0 0.0
2018-Feb-16 00:30N 39°15' W 076°33'0 0.0
2018-Feb-15 23:59N 39°15' W 076°33'0 0.0
2018-Feb-15 23:29N 39°15' W 076°33'1 1.1
2018-Feb-15 23:00N 39°15' W 076°34'1 1.3
2018-Feb-15 22:30N 39°15' W 076°34'0 0.0
2018-Feb-15 22:00N 39°15' W 076°34'0 0.0
2018-Feb-15 21:30N 39°15' W 076°34'0 0.0
2018-Feb-15 21:00N 39°15' W 076°34'0 0.0
2018-Feb-15 20:30N 39°15' W 076°34'0 0.0
2018-Feb-15 20:00N 39°15' W 076°34'0 0.0
2018-Feb-15 19:30N 39°15' W 076°34'0 0.0
2018-Feb-15 19:00N 39°15' W 076°34'0 0.0
2018-Feb-15 18:30N 39°15' W 076°34'0 0.0
2018-Feb-15 18:00N 39°15' W 076°34'0 0.0
2018-Feb-15 17:30N 39°15' W 076°34'0 0.0
2018-Feb-15 17:00N 39°15' W 076°34'0 0.0
2018-Feb-15 16:30N 39°15' W 076°34'0 0.0
2018-Feb-15 16:00N 39°15' W 076°34'0 0.0
2018-Feb-15 15:30N 39°15' W 076°34'0 0.0
2018-Feb-15 15:00N 39°15' W 076°34'0 0.0
2018-Feb-15 14:30N 39°15' W 076°34'0 0.0
2018-Feb-15 14:00N 39°15' W 076°34'0 0.0
2018-Feb-15 13:30N 39°15' W 076°34'0 0.6
2018-Feb-15 13:00N 39°15' W 076°34'3 6.5
2018-Feb-15 12:30N 39°12' W 076°31'4 7.9
2018-Feb-15 12:00N 39°11' W 076°26'9 7.2
2018-Feb-15 10:48N 39°15' W 076°17'3 6.5
2018-Feb-15 10:24N 39°17' W 076°14'3 7.5
2018-Feb-15 10:00N 39°20' W 076°12'4 7.8
2018-Feb-15 09:30N 39°22' W 076°08'4 7.9
2018-Feb-15 09:00N 39°24' W 076°04'4 8.0
2018-Feb-15 08:30N 39°27' W 075°60'4 8.1
2018-Feb-15 08:00N 39°29' W 075°56'4 8.0
2018-Feb-15 07:30N 39°32' W 075°52'4 8.0
2018-Feb-15 07:00N 39°32' W 075°47'4 8.3
2018-Feb-15 06:30N 39°33' W 075°41'4 8.0
2018-Feb-15 06:00N 39°33' W 075°36'3 5.7
2018-Feb-15 05:30N 39°32' W 075°33'4 7.5
2018-Feb-15 05:00N 39°29' W 075°34'4 7.5
2018-Feb-15 04:30N 39°25' W 075°32'4 8.1
2018-Feb-15 04:00N 39°22' W 075°28'4 8.6
2018-Feb-15 03:30N 39°19' W 075°25'4 8.3
2018-Feb-15 03:00N 39°16' W 075°21'4 7.1
2018-Feb-15 02:30N 39°12' W 075°21'2 4.9
2018-Feb-15 02:00N 39°11' W 075°24'0 0.0
2018-Feb-15 01:30N 39°11' W 075°24'0 0.0
2018-Feb-15 01:00N 39°11' W 075°24'0 0.0
2018-Feb-15 00:29N 39°11' W 075°24'0 0.0
2018-Feb-15 00:00N 39°11' W 075°24'0 0.0
2018-Feb-14 23:30N 39°11' W 075°24'0 0.0
2018-Feb-14 23:00N 39°11' W 075°24'0 0.0
2018-Feb-14 13:56N 39°11' W 075°24'0 0.0
2018-Feb-14 13:30N 39°11' W 075°24'0 0.2
2018-Feb-14 13:00N 39°11' W 075°24'2 3.3
2018-Feb-14 12:30N 39°12' W 075°22'2 3.4
2018-Feb-14 12:00N 39°13' W 075°20'1 1.8
2018-Feb-14 11:30N 39°14' W 075°20'1 1.7
2018-Feb-14 11:00N 39°15' W 075°21'1 2.9
2018-Feb-14 10:30N 39°16' W 075°21'1 2.4
2018-Feb-14 10:00N 39°17' W 075°22'2 3.2
2018-Feb-14 09:30N 39°18' W 075°23'2 3.8
2018-Feb-14 09:00N 39°20' W 075°25'2 4.9
2018-Feb-14 08:30N 39°21' W 075°27'3 5.9
2018-Feb-14 08:01N 39°24' W 075°30'5 9.0
2018-Feb-14 07:30N 39°27' W 075°34'4 8.9
2018-Feb-14 07:00N 39°32' W 075°33'2 4.9
2018-Feb-14 06:30N 39°33' W 075°35'3 6.2
2018-Feb-14 06:00N 39°33' W 075°39'3 5.7
2018-Feb-14 05:31N 39°33' W 075°43'3 5.6
2018-Feb-14 05:00N 39°32' W 075°46'3 5.4
2018-Feb-14 04:30N 39°32' W 075°50'3 5.5
2018-Feb-14 04:00N 39°31' W 075°53'3 6.1
2018-Feb-14 03:30N 39°29' W 075°57'3 6.6
2018-Feb-14 03:00N 39°27' W 075°60'3 6.6
2018-Feb-14 02:30N 39°25' W 076°03'3 6.7
2018-Feb-14 02:00N 39°23' W 076°06'4 7.0
2018-Feb-14 01:30N 39°21' W 076°10'5 7.0
2018-Feb-14 00:45N 39°17' W 076°14'5 6.9
2018-Feb-14 00:03N 39°14' W 076°19'1 7.2
2018-Feb-13 23:56N 39°14' W 076°20'3 7.1
2018-Feb-13 23:29N 39°12' W 076°24'3 6.2
2018-Feb-13 22:58N 39°11' W 076°28'3 6.5
2018-Feb-13 22:30N 39°13' W 076°31'3 6.5
2018-Feb-13 22:00N 39°15' W 076°34'0 0.2
2018-Feb-13 21:30N 39°15' W 076°34'0 0.0
2018-Feb-13 15:19N 39°15' W 076°34'0 0.0
2018-Feb-13 15:00N 39°15' W 076°34'0 0.0
2018-Feb-13 14:30N 39°15' W 076°34'0 0.0
2018-Feb-13 14:00N 39°15' W 076°34'0 0.0
2018-Feb-13 13:30N 39°15' W 076°34'0 0.0
2018-Feb-13 13:00N 39°15' W 076°34'0 0.0
2018-Feb-13 12:30N 39°15' W 076°34'0 0.0
2018-Feb-13 12:00N 39°15' W 076°34'0 0.0
2018-Feb-13 11:30N 39°15' W 076°34'0 0.0
2018-Feb-13 11:00N 39°15' W 076°34'0 0.0
2018-Feb-13 10:30N 39°15' W 076°34'0 0.0
2018-Feb-13 10:00N 39°15' W 076°34'0 0.0
2018-Feb-13 09:30N 39°15' W 076°34'0 0.0
2018-Feb-13 09:00N 39°15' W 076°34'0 0.0
2018-Feb-13 08:30N 39°15' W 076°34'0 0.0
2018-Feb-13 08:00N 39°15' W 076°34'0 0.0
2018-Feb-13 07:30N 39°15' W 076°34'0 0.0
2018-Feb-13 07:00N 39°15' W 076°34'0 0.0
2018-Feb-13 06:30N 39°15' W 076°34'0 0.0
2018-Feb-13 05:59N 39°15' W 076°34'0 0.0
2018-Feb-13 05:30N 39°15' W 076°34'0 0.0
2018-Feb-13 05:00N 39°15' W 076°34'0 0.0
2018-Feb-13 04:30N 39°15' W 076°34'0 0.0
2018-Feb-13 03:59N 39°15' W 076°34'0 0.0
2018-Feb-13 03:30N 39°15' W 076°34'0 0.0
2018-Feb-13 03:00N 39°15' W 076°34'0 0.0
2018-Feb-13 02:30N 39°15' W 076°34'0 0.0
2018-Feb-13 02:00N 39°15' W 076°34'0 0.0
2018-Feb-13 01:30N 39°15' W 076°34'0 0.0
2018-Feb-13 01:00N 39°15' W 076°34'0 0.0
2018-Feb-13 00:30N 39°15' W 076°34'0 0.0
2018-Feb-13 00:00N 39°15' W 076°34'0 0.0
2018-Feb-12 23:30N 39°15' W 076°34'0 0.0
2018-Feb-12 23:00N 39°15' W 076°34'0 0.0
2018-Feb-12 22:30N 39°15' W 076°34'0 0.0
2018-Feb-12 22:00N 39°15' W 076°34'0 0.0
2018-Feb-12 21:30N 39°15' W 076°34'0 0.0
2018-Feb-12 21:00N 39°15' W 076°34'0 0.0
2018-Feb-12 20:28N 39°15' W 076°34'0 0.0
2018-Feb-12 19:59N 39°15' W 076°34'0 0.0
2018-Feb-12 19:30N 39°15' W 076°34'0 0.0
2018-Feb-12 18:58N 39°15' W 076°34'0 0.0
2018-Feb-12 18:30N 39°15' W 076°34'0 0.0
2018-Feb-12 18:00N 39°15' W 076°34'0 0.0
2018-Feb-12 17:30N 39°15' W 076°34'0 0.0
2018-Feb-12 17:00N 39°15' W 076°34'0 0.0
2018-Feb-12 16:30N 39°15' W 076°34'0 0.0
2018-Feb-12 16:00N 39°15' W 076°34'0 0.0
2018-Feb-12 15:30N 39°15' W 076°34'0 0.0
2018-Feb-12 15:00N 39°15' W 076°34'0 0.0
2018-Feb-12 14:28N 39°15' W 076°34'0 0.0
2018-Feb-12 13:58N 39°15' W 076°34'0 0.1
2018-Feb-12 13:30N 39°15' W 076°34'0 0.8
2018-Feb-12 13:00N 39°15' W 076°34'1 1.1
2018-Feb-12 12:30N 39°15' W 076°33'0 0.0
2018-Feb-12 12:00N 39°15' W 076°33'0 0.0
2018-Feb-12 11:30N 39°15' W 076°33'0 0.0
2018-Feb-12 11:00N 39°15' W 076°33'0 0.0
2018-Feb-12 10:30N 39°15' W 076°33'0 0.0
2018-Feb-12 10:00N 39°15' W 076°33'0 0.0
2018-Feb-12 09:30N 39°15' W 076°33'0 0.0
2018-Feb-12 09:00N 39°15' W 076°33'0 0.0
2018-Feb-12 08:30N 39°15' W 076°33'0 0.0
2018-Feb-12 08:00N 39°15' W 076°33'0 0.0
2018-Feb-12 07:30N 39°15' W 076°33'0 0.0
2018-Feb-12 07:00N 39°15' W 076°33'1 1.8
2018-Feb-12 06:25N 39°15' W 076°34'0 0.0
2018-Feb-12 05:59N 39°15' W 076°34'0 0.0
2018-Feb-12 05:28N 39°15' W 076°34'1 2.4
2018-Feb-12 05:00N 39°15' W 076°33'0 0.0
2018-Feb-12 04:29N 39°15' W 076°33'0 0.0
2018-Feb-12 04:00N 39°15' W 076°33'0 0.0
2018-Feb-12 03:30N 39°15' W 076°33'0 0.0
2018-Feb-12 03:00N 39°15' W 076°33'0 0.0
2018-Feb-12 02:30N 39°15' W 076°33'0 0.0
2018-Feb-12 01:57N 39°15' W 076°33'0 0.0
2018-Feb-12 01:26N 39°15' W 076°33'0 0.0
2018-Feb-12 01:00N 39°15' W 076°33'0 0.0
2018-Feb-12 00:06N 39°15' W 076°33'0 0.0
2018-Feb-12 00:00N 39°15' W 076°33'0 0.0
2018-Feb-11 23:30N 39°15' W 076°33'0 0.0
2018-Feb-11 23:00N 39°15' W 076°33'0 0.0
2018-Feb-11 22:29N 39°16' W 076°33'0 0.0
2018-Feb-11 22:00N 39°15' W 076°33'0 0.0
2018-Feb-11 21:30N 39°15' W 076°33'  

Dump ship's entire track history